createdAt,value
2019-01-14T00:01:40.146Z,5.91
2019-01-14T00:02:39.961Z,5.90
2019-01-14T00:03:41.418Z,5.91
2019-01-14T00:04:41.450Z,5.87
2019-01-14T00:05:42.116Z,5.93
2019-01-14T00:06:42.494Z,5.87
2019-01-14T00:07:41.974Z,5.89
2019-01-14T00:08:39.610Z,5.87
2019-01-14T00:09:50.933Z,5.87
2019-01-14T00:11:11.955Z,5.90
2019-01-14T00:11:56.108Z,5.84
2019-01-14T00:12:51.926Z,5.75
2019-01-14T00:13:44.775Z,5.82
2019-01-14T00:14:56.820Z,5.83
2019-01-14T00:15:42.066Z,5.79
2019-01-14T00:16:41.658Z,5.76
2019-01-14T00:19:46.256Z,5.82
2019-01-14T00:20:52.967Z,5.76
2019-01-14T00:21:49.623Z,5.62
2019-01-14T00:22:46.851Z,5.73
2019-01-14T00:23:44.921Z,5.68
2019-01-14T00:24:48.241Z,5.75
2019-01-14T00:25:47.336Z,5.64
2019-01-14T00:26:47.190Z,5.76
2019-01-14T00:27:46.926Z,5.68
2019-01-14T00:29:03.253Z,5.72
2019-01-14T00:29:51.941Z,5.68
2019-01-14T00:30:46.742Z,5.64
2019-01-14T00:31:44.865Z,5.65
2019-01-14T00:32:54.454Z,5.62
2019-01-14T00:33:47.446Z,5.61
2019-01-14T00:34:44.892Z,5.65
2019-01-14T00:36:07.763Z,5.64
2019-01-14T00:36:44.857Z,5.59
2019-01-14T00:37:50.447Z,5.66
2019-01-14T00:38:46.741Z,5.68
2019-01-14T00:39:44.752Z,5.65
2019-01-14T00:40:48.500Z,5.68
2019-01-14T00:41:55.326Z,5.68
2019-01-14T00:42:44.787Z,5.76
2019-01-14T00:43:47.462Z,5.64
2019-01-14T00:44:44.751Z,5.69
2019-01-14T00:45:44.704Z,5.62
2019-01-14T00:46:49.866Z,5.72
2019-01-14T00:47:44.677Z,5.73
2019-01-14T00:48:52.325Z,5.66
2019-01-14T00:49:45.716Z,5.59
2019-01-14T00:50:46.261Z,5.61
2019-01-14T00:51:48.832Z,5.62
2019-01-14T00:52:46.245Z,5.66
2019-01-14T00:53:50.058Z,5.64
2019-01-14T00:54:47.336Z,5.62
2019-01-14T00:55:44.613Z,5.64
2019-01-14T00:56:56.131Z,5.56
2019-01-14T00:57:47.261Z,5.65
2019-01-14T00:58:46.306Z,5.54
2019-01-14T01:00:10.389Z,5.69
2019-01-14T01:00:49.211Z,5.61
2019-01-14T01:01:49.444Z,5.72
2019-01-14T01:02:48.471Z,5.65
2019-01-14T01:03:47.268Z,5.64
2019-01-14T01:05:00.375Z,5.71
2019-01-14T01:05:45.477Z,5.56
2019-01-14T01:06:51.834Z,5.62
2019-01-14T01:07:47.448Z,5.61
2019-01-14T01:08:52.566Z,5.66
2019-01-14T01:09:45.594Z,5.56
2019-01-14T01:10:49.493Z,5.57
2019-01-14T01:11:54.262Z,5.53
2019-01-14T01:12:49.449Z,5.48
2019-01-14T01:13:47.255Z,5.41
2019-01-14T01:14:51.542Z,5.48
2019-01-14T01:16:01.365Z,5.43
2019-01-14T01:16:52.721Z,5.47
2019-01-14T01:18:01.310Z,5.44
2019-01-14T01:18:49.657Z,5.36
2019-01-14T01:19:44.907Z,5.35
2019-01-14T01:20:52.352Z,5.30
2019-01-14T01:21:50.615Z,5.35
2019-01-14T01:22:45.318Z,5.35
2019-01-14T01:23:48.463Z,5.21
2019-01-14T01:24:45.673Z,5.26
2019-01-14T01:25:49.232Z,5.12
2019-01-14T01:26:47.390Z,5.17
2019-01-14T01:27:47.742Z,5.11
2019-01-14T01:28:47.790Z,5.11
2019-01-14T01:29:45.617Z,5.05
2019-01-14T01:30:48.327Z,5.07
2019-01-14T01:31:46.576Z,5.00
2019-01-14T01:32:44.473Z,4.94
2019-01-14T01:33:46.193Z,5.04
2019-01-14T01:34:47.326Z,4.99
2019-01-14T01:35:44.361Z,4.99
2019-01-14T01:36:44.243Z,4.94
2019-01-14T01:37:46.611Z,4.94
2019-01-14T01:38:44.316Z,4.94
2019-01-14T01:39:45.750Z,5.00
2019-01-14T01:40:55.425Z,4.90
2019-01-14T01:41:59.478Z,4.90
2019-01-14T01:42:45.550Z,4.93
2019-01-14T01:43:44.544Z,4.94
2019-01-14T01:44:52.045Z,4.90
2019-01-14T01:45:46.649Z,4.90
2019-01-14T01:46:52.000Z,4.99
2019-01-14T01:47:48.563Z,4.89
2019-01-14T01:48:45.428Z,4.93
2019-01-14T01:50:04.354Z,4.90
2019-01-14T01:50:45.798Z,4.82
2019-01-14T01:51:44.813Z,4.87
2019-01-14T01:52:53.548Z,4.82
2019-01-14T01:53:45.177Z,4.82
2019-01-14T01:54:46.996Z,4.89
2019-01-14T01:55:48.529Z,4.87
2019-01-14T01:56:45.524Z,4.89
2019-01-14T01:57:47.769Z,4.94
2019-01-14T01:58:46.828Z,4.94
2019-01-14T01:59:45.358Z,4.92
2019-01-14T02:01:05.133Z,4.87
2019-01-14T02:02:02.892Z,4.84
2019-01-14T02:02:52.466Z,4.96
2019-01-14T02:03:46.839Z,4.89
2019-01-14T02:04:45.317Z,4.89
2019-01-14T02:05:45.817Z,4.82
2019-01-14T02:06:58.702Z,4.87
2019-01-14T02:07:48.069Z,4.90
2019-01-14T02:08:49.244Z,4.94
2019-01-14T02:09:44.940Z,4.86
2019-01-14T02:10:47.768Z,4.89
2019-01-14T02:11:46.516Z,4.92
2019-01-14T02:12:48.495Z,4.87
2019-01-14T02:13:46.766Z,4.84
2019-01-14T02:14:45.861Z,4.90
2019-01-14T02:15:46.682Z,4.94
2019-01-14T02:16:48.309Z,4.80
2019-01-14T02:17:48.518Z,4.87
2019-01-14T02:18:43.740Z,4.89
2019-01-14T02:19:48.216Z,4.89
2019-01-14T02:20:53.389Z,4.87
2019-01-14T02:21:43.801Z,4.78
2019-01-14T02:22:47.500Z,4.78
2019-01-14T02:23:52.101Z,4.80
2019-01-14T02:24:51.496Z,4.77
2019-01-14T02:35:06.861Z,4.53
2019-01-14T02:36:08.089Z,4.45
2019-01-14T02:37:09.823Z,4.60
2019-01-14T02:38:06.278Z,4.56
2019-01-14T02:39:09.524Z,4.60
2019-01-14T02:40:07.510Z,4.55
2019-01-14T02:41:11.915Z,4.48
2019-01-14T02:42:18.510Z,4.52
2019-01-14T02:43:09.250Z,4.49
2019-01-14T02:44:06.514Z,4.45
2019-01-14T02:45:09.059Z,4.41
2019-01-14T02:46:08.200Z,4.38
2019-01-14T02:47:07.846Z,4.42
2019-01-14T02:48:10.417Z,4.45
2019-01-14T02:49:07.931Z,4.40
2019-01-14T02:50:15.082Z,4.45
2019-01-14T02:51:07.152Z,4.48
2019-01-14T02:52:07.987Z,4.45
2019-01-14T02:53:07.959Z,4.45
2019-01-14T02:54:07.970Z,4.41
2019-01-14T02:55:09.165Z,4.42
2019-01-14T02:56:08.190Z,4.38
2019-01-14T02:57:14.339Z,4.44
2019-01-14T02:58:13.401Z,4.52
2019-01-14T02:59:07.391Z,4.59
2019-01-14T03:00:06.815Z,4.62
2019-01-14T03:01:09.550Z,4.58
2019-01-14T03:02:12.836Z,4.49
2019-01-14T03:03:09.125Z,4.58
2019-01-14T03:04:07.557Z,4.56
2019-01-14T03:05:06.431Z,4.59
2019-01-14T03:06:08.917Z,4.58
2019-01-14T03:07:08.796Z,4.59
2019-01-14T03:08:09.108Z,4.58
2019-01-14T03:09:07.489Z,4.44
2019-01-14T03:10:07.815Z,4.45
2019-01-14T03:11:11.360Z,4.49
2019-01-14T03:12:10.802Z,4.42
2019-01-14T03:13:07.847Z,4.48
2019-01-14T03:15:23.951Z,4.40
2019-01-14T03:16:24.452Z,4.38
2019-01-14T03:17:25.718Z,4.40
2019-01-14T03:18:27.371Z,4.35
2019-01-14T03:19:25.691Z,4.40
2019-01-14T03:20:25.731Z,4.48
2019-01-14T03:21:34.544Z,4.32
2019-01-14T03:22:31.282Z,4.41
2019-01-14T03:23:31.298Z,4.24
2019-01-14T03:24:25.512Z,4.41
2019-01-14T03:25:25.503Z,4.38
2019-01-14T03:26:25.670Z,4.35
2019-01-14T03:27:25.531Z,4.35
2019-01-14T03:28:31.245Z,4.32
2019-01-14T03:30:52.382Z,4.35
2019-01-14T03:31:53.855Z,4.40
2019-01-14T03:32:53.728Z,4.35
2019-01-14T03:33:54.238Z,4.37
2019-01-14T03:34:54.340Z,4.26
2019-01-14T03:35:54.010Z,4.37
2019-01-14T03:36:53.540Z,4.35
2019-01-14T03:37:55.400Z,4.35
2019-01-14T03:38:53.554Z,4.24
2019-01-14T03:39:59.504Z,4.28
2019-01-14T03:42:08.231Z,4.30
2019-01-14T03:43:10.166Z,4.30
2019-01-14T03:44:09.650Z,4.35
2019-01-14T03:45:15.046Z,4.28
2019-01-14T03:47:20.852Z,4.30
2019-01-14T03:48:22.396Z,4.32
2019-01-14T03:50:32.970Z,4.28
2019-01-14T03:57:55.638Z,4.37
2019-01-14T03:58:57.778Z,4.31
2019-01-14T03:59:56.667Z,4.32
2019-01-14T04:00:56.814Z,4.26
2019-01-14T04:01:54.901Z,4.32
2019-01-14T04:02:56.652Z,4.26
2019-01-14T04:03:56.624Z,4.31
2019-01-14T04:04:56.809Z,4.32
2019-01-14T04:05:58.162Z,4.31
2019-01-14T04:06:56.608Z,4.34
2019-01-14T04:07:57.194Z,4.32
2019-01-14T04:08:56.687Z,4.28
2019-01-14T04:09:56.630Z,4.24
2019-01-14T04:10:56.647Z,4.19
2019-01-14T04:11:56.688Z,4.22
2019-01-14T04:12:55.838Z,4.28
2019-01-14T04:13:57.114Z,4.05
2019-01-14T04:14:57.633Z,4.08
2019-01-14T04:15:55.076Z,4.16
2019-01-14T04:16:57.837Z,4.22
2019-01-14T04:18:10.308Z,4.13
2019-01-14T04:18:57.902Z,4.12
2019-01-14T04:19:56.553Z,4.10
2019-01-14T04:20:56.619Z,4.14
2019-01-14T04:21:56.293Z,4.16
2019-01-14T04:22:56.374Z,4.17
2019-01-14T04:23:56.107Z,4.24
2019-01-14T04:24:56.122Z,4.10
2019-01-14T04:25:56.102Z,4.08
2019-01-14T04:26:56.116Z,4.20
2019-01-14T04:27:56.137Z,4.13
2019-01-14T04:28:56.137Z,4.13
2019-01-14T04:29:56.115Z,4.04
2019-01-14T04:30:56.107Z,3.99
2019-01-14T04:31:56.142Z,3.96
2019-01-14T04:32:56.203Z,3.99
2019-01-14T04:34:03.295Z,3.98
2019-01-14T04:34:56.285Z,3.91
2019-01-14T04:35:56.798Z,3.80
2019-01-14T04:38:05.078Z,3.83
2019-01-14T04:39:06.564Z,3.83
2019-01-14T04:40:08.471Z,3.91
2019-01-14T04:41:06.474Z,3.80
2019-01-14T04:42:06.391Z,3.87
2019-01-14T04:43:06.387Z,3.84
2019-01-14T04:44:06.456Z,3.88
2019-01-14T04:45:06.382Z,3.88
2019-01-14T04:46:06.381Z,3.81
2019-01-14T04:47:06.449Z,3.84
2019-01-14T04:48:06.395Z,3.83
2019-01-14T04:49:06.387Z,3.88
2019-01-14T04:50:06.388Z,3.87
2019-01-14T04:51:06.375Z,3.81
2019-01-14T04:52:06.406Z,3.84
2019-01-14T04:54:15.010Z,3.86
2019-01-14T04:55:16.663Z,3.84
2019-01-14T04:56:16.591Z,3.91
2019-01-14T04:57:16.661Z,3.88
2019-01-14T04:58:16.521Z,3.87
2019-01-14T04:59:16.505Z,3.86
2019-01-14T05:00:16.535Z,3.81
2019-01-14T05:01:16.532Z,3.87
2019-01-14T05:02:16.518Z,3.84
2019-01-14T05:03:16.517Z,3.88
2019-01-14T05:04:16.527Z,3.91
2019-01-14T05:05:16.531Z,3.86
2019-01-14T05:06:16.512Z,3.91
2019-01-14T05:07:16.497Z,3.80
2019-01-14T05:08:16.517Z,3.81
2019-01-14T05:09:17.522Z,3.92
2019-01-14T05:10:16.516Z,3.87
2019-01-14T05:11:16.516Z,3.88
2019-01-14T05:12:16.541Z,3.94
2019-01-14T05:13:16.541Z,3.86
2019-01-14T05:14:16.521Z,3.83
2019-01-14T05:15:16.524Z,3.81
2019-01-14T05:16:14.591Z,3.80
2019-01-14T05:17:16.525Z,3.86
2019-01-14T05:18:16.579Z,3.87
2019-01-14T05:19:16.528Z,3.80
2019-01-14T05:20:16.517Z,3.87
2019-01-14T05:21:16.517Z,3.91
2019-01-14T05:22:14.567Z,3.87
2019-01-14T05:23:16.507Z,3.81
2019-01-14T05:24:15.507Z,3.84
2019-01-14T05:25:16.007Z,3.95
2019-01-14T05:26:16.032Z,3.92
2019-01-14T05:27:16.013Z,3.91
2019-01-14T05:28:16.028Z,3.84
2019-01-14T05:29:15.987Z,3.96
2019-01-14T05:30:15.998Z,3.88
2019-01-14T05:31:16.003Z,3.83
2019-01-14T05:32:16.034Z,3.84
2019-01-14T05:33:16.010Z,3.91
2019-01-14T05:34:16.002Z,3.84
2019-01-14T05:35:16.022Z,3.83
2019-01-14T05:36:16.015Z,3.87
2019-01-14T05:37:16.032Z,3.88
2019-01-14T05:38:23.234Z,3.91
2019-01-14T05:39:16.125Z,3.87
2019-01-14T05:40:16.119Z,3.84
2019-01-14T05:41:16.274Z,3.84
2019-01-14T05:42:16.049Z,3.84
2019-01-14T05:43:16.065Z,3.88
2019-01-14T05:44:16.044Z,3.88
2019-01-14T05:45:16.038Z,3.92
2019-01-14T05:46:16.069Z,3.86
2019-01-14T05:47:16.029Z,3.83
2019-01-14T05:48:16.080Z,3.87
2019-01-14T05:49:16.069Z,3.87
2019-01-14T05:50:21.934Z,3.91
2019-01-14T05:52:35.617Z,3.81
2019-01-14T05:53:37.276Z,3.81
2019-01-14T05:54:37.249Z,3.77
2019-01-14T05:55:43.095Z,3.65
2019-01-14T05:56:37.294Z,3.69
2019-01-14T05:57:36.864Z,3.66
2019-01-14T05:58:37.243Z,3.73
2019-01-14T05:59:43.108Z,3.74
2019-01-14T06:00:37.288Z,3.69
2019-01-14T06:02:45.700Z,3.66
2019-01-14T06:03:45.619Z,3.74
2019-01-14T06:04:53.223Z,3.66
2019-01-14T06:05:47.581Z,3.68
2019-01-14T06:06:47.417Z,3.69
2019-01-14T06:07:47.468Z,3.69
2019-01-14T06:08:47.300Z,3.66
2019-01-14T06:11:03.074Z,3.73
2019-01-14T06:12:04.882Z,3.73
2019-01-14T06:13:11.927Z,3.70
2019-01-14T06:14:04.798Z,3.68
2019-01-14T06:15:04.773Z,3.66
2019-01-14T06:16:10.702Z,3.68
2019-01-14T06:17:04.954Z,3.68
2019-01-14T06:18:04.881Z,3.50
2019-01-14T06:19:04.907Z,3.58
2019-01-14T06:20:04.754Z,3.56
2019-01-14T06:21:02.919Z,3.65
2019-01-14T06:22:04.732Z,3.66
2019-01-14T06:23:04.757Z,3.60
2019-01-14T06:24:04.775Z,3.69
2019-01-14T06:25:04.770Z,3.69
2019-01-14T06:26:04.751Z,3.59
2019-01-14T06:27:04.767Z,3.59
2019-01-14T06:28:12.889Z,3.58
2019-01-14T06:29:05.267Z,3.56
2019-01-14T06:30:04.378Z,3.58
2019-01-14T06:31:04.435Z,3.70
2019-01-14T06:32:04.301Z,3.63
2019-01-14T06:33:04.290Z,3.60
2019-01-14T06:34:04.325Z,3.51
2019-01-14T06:35:04.283Z,3.59
2019-01-14T06:36:04.281Z,3.55
2019-01-14T06:37:11.400Z,3.68
2019-01-14T06:38:04.473Z,3.65
2019-01-14T06:39:04.460Z,3.59
2019-01-14T06:40:04.410Z,3.66
2019-01-14T06:41:05.432Z,3.70
2019-01-14T06:42:10.355Z,3.55
2019-01-14T06:43:04.516Z,3.74
2019-01-14T06:44:04.525Z,3.70
2019-01-14T06:45:04.494Z,3.86
2019-01-14T06:46:04.345Z,3.73
2019-01-14T06:47:04.376Z,3.80
2019-01-14T06:48:13.039Z,3.68
2019-01-14T06:49:04.502Z,3.73
2019-01-14T06:50:10.263Z,3.74
2019-01-14T06:51:04.510Z,3.73
2019-01-14T06:52:04.469Z,3.65
2019-01-14T06:53:04.626Z,3.66
2019-01-14T06:54:04.414Z,3.53
2019-01-14T06:55:04.435Z,3.55
2019-01-14T06:56:02.513Z,3.56
2019-01-14T06:57:04.419Z,3.56
2019-01-14T06:58:11.578Z,3.60
2019-01-14T06:59:04.497Z,3.58
2019-01-14T07:00:04.592Z,3.47
2019-01-14T07:01:04.509Z,3.51
2019-01-14T07:02:04.123Z,3.55
2019-01-14T07:03:03.983Z,3.60
2019-01-14T07:04:03.953Z,3.50
2019-01-14T07:05:10.071Z,3.58
2019-01-14T07:06:10.109Z,3.60
2019-01-14T07:07:04.127Z,3.65
2019-01-14T07:08:11.217Z,3.69
2019-01-14T07:09:10.125Z,3.65
2019-01-14T07:10:04.206Z,3.66
2019-01-14T07:11:10.037Z,3.65
2019-01-14T07:12:04.207Z,3.66
2019-01-14T07:13:04.236Z,3.70
2019-01-14T07:14:04.178Z,3.76
2019-01-14T07:15:04.194Z,3.78
2019-01-14T07:16:04.260Z,3.76
2019-01-14T07:17:04.121Z,3.77
2019-01-14T07:18:04.164Z,3.69
2019-01-14T07:19:04.129Z,3.62
2019-01-14T07:20:04.122Z,3.58
2019-01-14T07:21:09.925Z,3.55
2019-01-14T07:22:04.242Z,3.45
2019-01-14T07:23:11.316Z,3.34
2019-01-14T07:24:04.229Z,3.36
2019-01-14T07:25:09.869Z,3.26
2019-01-14T07:26:10.884Z,3.28
2019-01-14T07:28:12.483Z,3.21
2019-01-14T07:29:14.172Z,3.23
2019-01-14T07:31:22.761Z,3.22
2019-01-14T07:32:24.404Z,3.11
2019-01-14T07:34:32.938Z,3.16
2019-01-14T07:36:42.155Z,3.08
2019-01-14T07:38:51.433Z,3.04
2019-01-14T07:41:02.593Z,3.08
2019-01-14T07:42:04.242Z,3.04
2019-01-14T07:43:03.303Z,3.07
2019-01-14T07:44:04.405Z,3.00
2019-01-14T07:45:10.175Z,2.98
2019-01-14T07:46:10.175Z,3.01
2019-01-14T07:47:04.403Z,3.00
2019-01-14T07:48:11.504Z,2.95
2019-01-14T07:49:02.481Z,3.03
2019-01-14T07:50:04.368Z,2.95
2019-01-14T07:51:10.091Z,2.98
2019-01-14T07:52:10.109Z,3.00
2019-01-14T07:53:12.077Z,3.05
2019-01-14T07:54:10.115Z,3.00
2019-01-14T07:55:10.039Z,3.03
2019-01-14T07:56:10.040Z,3.03
2019-01-14T07:57:10.039Z,3.10
2019-01-14T07:58:11.238Z,3.11
2019-01-14T07:59:04.213Z,3.14
2019-01-14T08:00:04.199Z,3.10
2019-01-14T08:01:09.991Z,3.05
2019-01-14T08:02:09.974Z,3.16
2019-01-14T08:03:12.363Z,3.08
2019-01-14T08:04:04.243Z,3.10
2019-01-14T08:05:09.978Z,3.11
2019-01-14T08:06:09.998Z,3.10
2019-01-14T08:07:03.951Z,3.14
2019-01-14T08:08:14.218Z,3.19
2019-01-14T08:09:03.876Z,3.08
2019-01-14T08:10:03.867Z,3.14
2019-01-14T08:11:09.896Z,3.10
2019-01-14T08:12:09.890Z,3.10
2019-01-14T08:13:11.060Z,3.05
2019-01-14T08:15:12.470Z,3.11
2019-01-14T08:17:21.731Z,2.92
2019-01-14T08:18:23.400Z,2.97
2019-01-14T08:19:23.675Z,2.90
2019-01-14T08:20:29.275Z,3.04
2019-01-14T08:21:23.469Z,2.92
2019-01-14T08:22:31.538Z,2.95
2019-01-14T08:23:29.258Z,2.95
2019-01-14T08:24:29.256Z,3.03
2019-01-14T08:25:29.275Z,3.00
2019-01-14T08:26:23.621Z,3.01
2019-01-14T08:28:31.865Z,3.10
2019-01-14T08:30:41.091Z,3.07
2019-01-14T08:32:50.347Z,3.04
2019-01-14T08:35:00.510Z,3.01
2019-01-14T08:36:02.197Z,3.10
2019-01-14T08:38:10.812Z,3.01
2019-01-14T08:39:12.434Z,2.90
2019-01-14T08:40:18.318Z,3.08
2019-01-14T08:41:12.466Z,3.13
2019-01-14T08:43:20.945Z,3.10
2019-01-14T08:45:30.314Z,3.05
2019-01-14T08:47:40.345Z,3.08
2019-01-14T08:48:48.677Z,3.07
2019-01-14T08:49:43.001Z,3.07
2019-01-14T08:50:41.985Z,3.07
2019-01-14T08:51:42.011Z,3.10
2019-01-14T08:52:41.991Z,3.10
2019-01-14T08:53:40.243Z,3.08
2019-01-14T08:54:41.975Z,3.13
2019-01-14T08:55:41.996Z,3.04
2019-01-14T08:56:42.121Z,3.08
2019-01-14T08:57:42.024Z,3.14
2019-01-14T08:58:42.248Z,3.16
2019-01-14T08:59:42.052Z,3.31
2019-01-14T09:00:41.984Z,3.31
2019-01-14T09:01:41.124Z,3.29
2019-01-14T09:02:42.006Z,3.25
2019-01-14T09:03:42.010Z,3.26
2019-01-14T09:04:42.000Z,3.29
2019-01-14T09:05:41.992Z,3.19
2019-01-14T09:06:47.725Z,3.28
2019-01-14T09:07:42.092Z,3.23
2019-01-14T09:08:47.655Z,3.18
2019-01-14T09:09:41.692Z,3.13
2019-01-14T09:10:47.616Z,3.08
2019-01-14T09:11:41.709Z,3.13
2019-01-14T09:12:48.751Z,3.13
2019-01-14T09:13:41.713Z,3.13
2019-01-14T09:14:47.586Z,3.13
2019-01-14T09:15:47.606Z,3.19
2019-01-14T09:16:47.621Z,3.10
2019-01-14T09:17:41.863Z,3.11
2019-01-14T09:19:50.329Z,3.14
2019-01-14T09:20:51.913Z,3.07
2019-01-14T09:21:51.923Z,3.11
2019-01-14T09:22:51.912Z,3.11
2019-01-14T09:23:57.774Z,3.08
2019-01-14T09:24:57.757Z,3.21
2019-01-14T09:25:57.728Z,3.11
2019-01-14T09:26:52.034Z,3.11
2019-01-14T09:27:50.699Z,3.14
2019-01-14T09:28:52.016Z,3.11
2019-01-14T09:29:51.994Z,3.18
2019-01-14T09:30:51.996Z,3.19
2019-01-14T09:31:52.006Z,3.13
2019-01-14T09:32:52.027Z,3.19
2019-01-14T09:33:50.069Z,3.11
2019-01-14T09:34:52.020Z,3.16
2019-01-14T09:35:52.042Z,3.28
2019-01-14T09:36:52.014Z,3.18
2019-01-14T09:37:52.018Z,3.14
2019-01-14T09:38:52.012Z,3.22
2019-01-14T09:39:51.521Z,3.23
2019-01-14T09:40:51.502Z,3.22
2019-01-14T09:41:51.519Z,3.26
2019-01-14T09:42:51.527Z,3.31
2019-01-14T09:43:51.495Z,3.28
2019-01-14T09:44:57.674Z,3.34
2019-01-14T09:47:01.328Z,3.28
2019-01-14T09:48:02.966Z,3.32
2019-01-14T09:49:02.888Z,3.37
2019-01-14T09:50:02.858Z,3.58
2019-01-14T09:51:02.884Z,3.50
2019-01-14T09:52:02.996Z,3.59
2019-01-14T09:53:02.973Z,3.56
2019-01-14T09:54:08.868Z,3.48
2019-01-14T09:55:09.818Z,3.51
2019-01-14T09:56:02.137Z,3.58
2019-01-14T09:57:02.969Z,3.50
2019-01-14T09:58:02.948Z,3.59
2019-01-14T09:59:08.750Z,3.47
2019-01-14T10:01:11.305Z,3.51
2019-01-14T10:02:11.304Z,3.47
2019-01-14T10:03:13.056Z,3.48
2019-01-14T10:04:13.008Z,3.55
2019-01-14T10:05:13.010Z,3.48
2019-01-14T10:06:13.031Z,3.48
2019-01-14T10:07:13.058Z,3.42
2019-01-14T10:08:13.040Z,3.45
2019-01-14T10:10:21.436Z,3.66
2019-01-14T10:11:23.120Z,3.73
2019-01-14T10:12:23.141Z,3.56
2019-01-14T10:13:23.119Z,3.58
2019-01-14T10:14:23.136Z,3.58
2019-01-14T10:15:23.173Z,3.59
2019-01-14T10:16:23.132Z,3.60
2019-01-14T10:17:23.131Z,3.58
2019-01-14T10:18:23.174Z,3.68
2019-01-14T10:19:23.151Z,3.70
2019-01-14T10:20:23.131Z,3.65
2019-01-14T10:21:23.168Z,3.59
2019-01-14T10:22:23.131Z,3.66
2019-01-14T10:23:23.165Z,3.66
2019-01-14T10:24:23.158Z,3.68
2019-01-14T10:25:23.137Z,3.68
2019-01-14T10:26:23.133Z,3.62
2019-01-14T10:27:23.132Z,3.69
2019-01-14T10:28:23.140Z,3.70
2019-01-14T10:29:23.131Z,3.76
2019-01-14T10:30:23.172Z,3.84
2019-01-14T10:31:23.133Z,3.98
2019-01-14T10:32:23.130Z,3.94
2019-01-14T10:33:23.140Z,3.95
2019-01-14T10:34:23.141Z,3.96
2019-01-14T10:35:23.129Z,4.02
2019-01-14T10:36:21.179Z,4.13
2019-01-14T10:37:23.130Z,4.13
2019-01-14T10:38:22.634Z,4.24
2019-01-14T10:39:22.629Z,4.26
2019-01-14T10:40:22.635Z,4.12
2019-01-14T10:41:22.637Z,4.19
2019-01-14T10:42:22.821Z,4.23
2019-01-14T10:43:22.636Z,4.20
2019-01-14T10:44:22.636Z,4.20
2019-01-14T10:45:22.647Z,4.14
2019-01-14T10:46:22.619Z,4.06
2019-01-14T10:47:22.639Z,4.06
2019-01-14T10:48:22.669Z,4.02
2019-01-14T10:49:22.634Z,3.98
2019-01-14T10:50:22.627Z,4.10
2019-01-14T10:51:22.629Z,4.13
2019-01-14T10:52:22.627Z,4.05
2019-01-14T10:53:22.645Z,4.08
2019-01-14T10:54:22.654Z,4.10
2019-01-14T10:55:22.630Z,4.16
2019-01-14T10:56:22.616Z,4.10
2019-01-14T10:57:22.617Z,4.12
2019-01-14T10:58:22.635Z,4.17
2019-01-14T10:59:20.915Z,4.19
2019-01-14T11:00:22.661Z,4.17
2019-01-14T11:01:22.618Z,4.12
2019-01-14T11:02:22.682Z,4.19
2019-01-14T11:03:22.630Z,4.16
2019-01-14T11:04:22.644Z,4.13
2019-01-14T11:05:22.631Z,4.06
2019-01-14T11:06:22.665Z,4.20
2019-01-14T11:07:22.625Z,4.24
2019-01-14T11:08:22.626Z,4.30
2019-01-14T11:09:22.640Z,4.44
2019-01-14T11:10:22.617Z,4.30
2019-01-14T11:11:22.640Z,4.50
2019-01-14T11:12:22.658Z,4.45
2019-01-14T11:13:22.628Z,4.37
2019-01-14T11:14:22.641Z,4.34
2019-01-14T11:15:22.618Z,4.16
2019-01-14T11:16:22.629Z,4.19
2019-01-14T11:17:22.618Z,4.26
2019-01-14T11:18:22.655Z,4.22
2019-01-14T11:19:22.660Z,4.24
2019-01-14T11:20:22.625Z,4.20
2019-01-14T11:21:22.628Z,4.20
2019-01-14T11:22:22.943Z,4.24
2019-01-14T11:23:22.630Z,4.12
2019-01-14T11:24:22.661Z,4.04
2019-01-14T11:25:22.648Z,4.12
2019-01-14T11:26:21.638Z,3.96
2019-01-14T11:27:22.153Z,4.10
2019-01-14T11:28:20.639Z,4.02
2019-01-14T11:29:22.148Z,3.96
2019-01-14T11:30:22.360Z,3.95
2019-01-14T11:31:22.136Z,3.99
2019-01-14T11:32:22.168Z,4.01
2019-01-14T11:33:22.215Z,3.95
2019-01-14T11:34:22.199Z,3.88
2019-01-14T11:35:22.210Z,3.94
2019-01-14T11:36:22.245Z,3.88
2019-01-14T11:37:22.158Z,3.84
2019-01-14T11:38:22.188Z,3.98
2019-01-14T11:39:22.153Z,4.35
2019-01-14T11:40:22.149Z,4.30
2019-01-14T11:41:22.144Z,4.37
2019-01-14T11:42:22.144Z,4.35
2019-01-14T11:43:22.347Z,4.73
2019-01-14T11:44:22.143Z,4.97
2019-01-14T11:45:22.137Z,5.17
2019-01-14T11:46:22.141Z,4.94
2019-01-14T11:47:22.213Z,5.02
2019-01-14T11:48:22.170Z,5.48
2019-01-14T11:49:22.146Z,5.11
2019-01-14T11:50:22.161Z,4.67
2019-01-14T11:51:22.167Z,4.49
2019-01-14T11:52:22.159Z,4.48
2019-01-14T11:53:22.132Z,4.31
2019-01-14T11:54:22.205Z,4.28
2019-01-14T11:55:22.264Z,4.16
2019-01-14T11:56:22.347Z,4.26
2019-01-14T11:57:20.332Z,4.31
2019-01-14T11:58:22.311Z,4.20
2019-01-14T11:59:22.158Z,4.23
2019-01-14T12:00:22.142Z,4.30
2019-01-14T12:01:22.166Z,4.41
2019-01-14T12:02:22.117Z,4.62
2019-01-14T12:03:20.289Z,4.93
2019-01-14T12:04:22.173Z,4.68
2019-01-14T12:05:22.134Z,4.52
2019-01-14T12:06:22.122Z,4.53
2019-01-14T12:07:22.136Z,4.38
2019-01-14T12:08:22.142Z,4.34
2019-01-14T12:09:22.169Z,4.40
2019-01-14T12:10:22.139Z,4.44
2019-01-14T12:11:22.133Z,4.30
2019-01-14T12:12:22.122Z,4.38
2019-01-14T12:13:22.149Z,4.34
2019-01-14T12:14:22.128Z,4.37
2019-01-14T12:15:21.668Z,4.35
2019-01-14T12:16:21.628Z,4.24
2019-01-14T12:17:21.627Z,4.23
2019-01-14T12:18:21.629Z,4.24
2019-01-14T12:19:28.714Z,4.14
2019-01-14T12:20:21.846Z,4.16
2019-01-14T12:21:28.740Z,4.12
